Time;durP1;ratioP1;P1;durP2;ratioP2;P2;SDS_P1;SDS_P2;PMS_P1;PMS_P2;Temp;Humidity;BMP_temperature;BMP_pressure;BME280_temperature;BME280_humidity;BME280_pressure;Samples;Min_cycle;Max_cycle;Signal;HPM_P1;HPM_P2
2021/03/28 00:01:09;;;;;;;52.97;28.70;;;;;;;2.83;66.35;100455.74;1772214;80;23024;-59
2021/03/28 00:03:58;;;;;;;55.67;29.50;;;;;;;2.80;66.47;100454.45;1767032;80;21322;-59
2021/03/28 00:06:30;;;;;;;48.10;28.83;;;;;;;2.77;66.55;100450.47;1774979;80;21648;-60
2021/03/28 00:09:16;;;;;;;51.07;27.87;;;;;;;2.75;66.65;100454.91;1747394;79;21292;-59
2021/03/28 00:11:59;;;;;;;50.60;29.60;;;;;;;2.74;66.76;100448.26;1772194;78;21400;-60
2021/03/28 00:14:50;;;;;;;47.40;27.43;;;;;;;2.71;66.85;100446.97;1775461;80;21511;-60
2021/03/28 00:17:31;;;;;;;53.53;29.83;;;;;;;2.70;66.90;100450.52;1773250;79;21130;-60
2021/03/28 00:20:16;;;;;;;51.50;29.87;;;;;;;2.66;66.88;100450.52;1774087;80;21111;-59
2021/03/28 00:23:10;;;;;;;50.73;27.93;;;;;;;2.61;66.97;100451.00;1770161;80;21097;-59
2021/03/28 00:26:08;;;;;;;49.40;27.62;;;;;;;2.60;67.12;100453.66;1773586;80;21509;-59
2021/03/28 00:28:45;;;;;;;47.30;26.00;;;;;;;2.59;67.06;100454.11;1725823;80;22313;-59
2021/03/28 00:31:21;;;;;;;49.40;24.47;;;;;;;2.52;67.20;100452.81;1771735;80;21127;-59
2021/03/28 00:34:21;;;;;;;56.20;29.60;;;;;;;2.51;67.34;100451.05;1769669;80;21570;-59
2021/03/28 00:37:03;;;;;;;49.80;27.10;;;;;;;2.52;67.43;100447.50;1773971;79;20969;-59
2021/03/28 00:40:08;;;;;;;48.20;27.13;;;;;;;2.51;67.49;100451.05;1774099;79;21491;-59
2021/03/28 00:42:48;;;;;;;52.45;27.52;;;;;;;2.51;67.49;100454.59;1719768;80;22241;-60
2021/03/28 00:45:30;;;;;;;47.47;28.50;;;;;;;2.52;67.51;100458.13;1718614;80;21651;-59
2021/03/28 00:48:13;;;;;;;52.33;30.00;;;;;;;2.52;67.43;100452.81;1723616;80;21191;-59
2021/03/28 00:50:59;;;;;;;50.15;28.73;;;;;;;2.48;67.40;100455.92;1693722;80;21182;-59
2021/03/28 00:53:45;;;;;;;51.45;28.27;;;;;;;2.47;67.38;100456.80;1717671;80;21468;-59
2021/03/28 00:56:38;;;;;;;45.03;24.47;;;;;;;2.44;67.34;100458.17;1721704;80;21546;-59
2021/03/28 00:59:20;;;;;;;49.73;26.50;;;;;;;2.39;67.41;100451.97;1724958;80;21488;-60
2021/03/28 01:02:14;;;;;;;45.17;26.13;;;;;;;2.39;67.54;100459.94;1821892;76;26891;-59
2021/03/28 01:05:15;;;;;;;47.57;25.30;;;;;;;2.32;67.54;100462.63;1794212;77;21195;-60
2021/03/28 01:07:48;;;;;;;51.60;29.43;;;;;;;2.30;67.58;100456.47;1796234;77;21354;-59
2021/03/28 01:10:47;;;;;;;52.07;30.40;;;;;;;2.30;67.57;100455.98;1789296;79;21263;-59
2021/03/28 01:13:41;;;;;;;39.07;24.87;;;;;;;2.25;67.61;100457.80;1792591;77;21060;-60
2021/03/28 01:16:56;;;;;;;45.03;24.87;;;;;;;2.22;67.69;100461.77;1790744;79;21016;-59
2021/03/28 01:19:59;;;;;;;37.75;23.90;;;;;;;2.16;67.70;100455.16;1795204;77;21175;-59
2021/03/28 01:22:56;;;;;;;45.87;26.53;;;;;;;2.10;67.70;100464.48;1740537;81;23113;-59
2021/03/28 01:26:07;;;;;;;52.83;31.17;;;;;;;2.05;67.77;100463.59;1736629;80;21191;-59
2021/03/28 01:28:52;;;;;;;50.67;30.87;;;;;;;2.01;67.88;100466.72;1739939;81;21069;-59
2021/03/28 01:31:25;;;;;;;56.10;32.13;;;;;;;1.97;68.00;100464.06;1713713;81;22368;-59
2021/03/28 01:34:15;;;;;;;57.77;34.77;;;;;;;1.93;68.13;100472.49;1734524;80;21351;-58
2021/03/28 01:36:51;;;;;;;56.43;31.47;;;;;;;1.89;68.20;100468.06;1740009;80;21221;-58
2021/03/28 01:39:25;;;;;;;52.90;32.97;;;;;;;1.89;68.25;100469.39;1739434;81;21182;-58
2021/03/28 01:42:01;;;;;;;50.45;27.95;;;;;;;1.88;68.31;100464.96;1688572;83;21205;-59
2021/03/28 01:44:51;;;;;;;55.10;30.80;;;;;;;1.86;68.31;100470.30;1663111;84;21481;-59
2021/03/28 01:47:43;;;;;;;58.93;33.83;;;;;;;1.84;68.31;100470.73;1659099;84;21248;-59
2021/03/28 01:50:22;;;;;;;52.03;31.23;;;;;;;1.82;68.39;100471.17;1657811;84;21692;-59
2021/03/28 01:53:04;;;;;;;58.13;33.63;;;;;;;1.82;68.43;100475.60;1656897;84;21699;-58
2021/03/28 01:55:58;;;;;;;59.27;32.43;;;;;;;1.79;68.40;100468.52;1659230;84;21213;-58
2021/03/28 01:59:07;;;;;;;55.87;32.10;;;;;;;1.77;68.41;100473.41;1660497;84;21220;-58
2021/03/28 02:01:49;;;;;;;53.10;31.10;;;;;;;1.76;68.44;100475.17;1660252;84;21634;-58
2021/03/28 02:04:28;;;;;;;50.10;29.50;;;;;;;1.74;68.45;100475.61;1662345;84;21241;-59
2021/03/28 02:07:28;;;;;;;52.80;31.87;;;;;;;1.69;68.54;100475.19;1659716;84;21248;-59
2021/03/28 02:10:32;;;;;;;50.13;28.27;;;;;;;1.67;68.59;100484.91;1658974;84;21240;-59
2021/03/28 02:13:02;;;;;;;47.40;27.90;;;;;;;1.66;68.71;100473.85;1630719;84;21220;-58
2021/03/28 02:16:09;;;;;;;46.00;27.17;;;;;;;1.65;68.80;100470.31;1661222;84;21222;-57
2021/03/28 02:19:13;;;;;;;51.15;27.85;;;;;;;1.59;68.85;100474.30;1659246;84;21561;-58
2021/03/28 02:22:04;;;;;;;49.90;26.50;;;;;;;1.59;68.85;100474.30;1674013;83;21221;-58
2021/03/28 02:24:46;;;;;;;41.30;24.70;;;;;;;1.57;68.89;100473.41;1684576;83;21129;-58
2021/03/28 02:27:52;;;;;;;48.40;26.20;;;;;;;1.56;68.87;100465.01;1671087;83;21234;-58
2021/03/28 02:30:45;;;;;;;49.33;25.83;;;;;;;1.55;68.86;100471.64;1637838;87;21270;-57
2021/03/28 02:33:44;;;;;;;47.40;27.33;;;;;;;1.58;68.91;100472.98;1872782;75;26873;-58
2021/03/28 02:36:37;;;;;;;38.97;21.03;;;;;;;1.52;68.94;100475.20;1847499;77;21073;-57
2021/03/28 02:39:21;;;;;;;34.50;20.43;;;;;;;1.53;68.99;100480.06;1848774;77;21343;-57
2021/03/28 02:42:13;;;;;;;34.20;21.15;;;;;;;1.52;69.11;100469.89;1802754;77;21011;-58
2021/03/28 02:44:58;;;;;;;36.77;19.37;;;;;;;1.54;69.11;100474.73;1750826;80;20989;-58
2021/03/28 02:48:10;;;;;;;32.15;19.15;;;;;;;1.54;69.05;100470.75;1754346;79;20949;-58
2021/03/28 02:51:06;;;;;;;31.93;19.30;;;;;;;1.51;69.00;100472.98;1748630;79;21373;-58
2021/03/28 02:54:07;;;;;;;40.00;21.65;;;;;;;1.52;68.96;100471.22;1812974;77;21439;-58
2021/03/28 02:57:14;;;;;;;33.43;20.20;;;;;;;1.50;68.96;100471.22;1738357;80;21701;-59
2021/03/28 03:00:02;;;;;;;32.17;18.20;;;;;;;1.47;69.01;100467.22;1742055;80;21000;-59
2021/03/28 03:03:24;;;;;;;31.03;18.17;;;;;;;1.46;68.99;100463.23;1805996;77;21095;-59
2021/03/28 03:06:22;;;;;;;33.03;17.80;;;;;;;1.46;69.05;100469.43;1787280;77;21123;-59
2021/03/28 03:09:10;;;;;;;35.13;19.27;;;;;;;1.46;69.05;100464.13;1814650;77;21360;-60
2021/03/28 03:11:57;;;;;;;29.93;18.60;;;;;;;1.50;69.00;100469.00;1768265;79;21108;-59
2021/03/28 03:15:02;;;;;;;31.13;19.17;;;;;;;1.50;68.96;100464.58;1752801;79;21108;-60
2021/03/28 03:18:08;;;;;;;38.53;20.50;;;;;;;1.47;69.02;100468.98;1762348;79;21103;-60
2021/03/28 03:21:01;;;;;;;31.70;18.30;;;;;;;1.44;69.16;100472.99;1811587;77;21096;-60
2021/03/28 03:23:56;;;;;;;29.87;16.57;;;;;;;1.41;69.17;100468.56;1816143;77;21376;-61
2021/03/28 03:27:07;;;;;;;29.55;16.17;;;;;;;1.39;69.22;100473.41;1813506;77;21875;-61
2021/03/28 03:29:56;;;;;;;29.97;17.07;;;;;;;1.39;69.28;100474.30;1806200;77;21095;-61
2021/03/28 03:32:44;;;;;;;37.10;18.70;;;;;;;1.39;69.22;100470.76;1813747;77;21191;-61
2021/03/28 03:35:35;;;;;;;27.63;17.57;;;;;;;1.37;69.24;100470.75;1751435;80;21195;-62
2021/03/28 03:38:20;;;;;;;25.97;16.07;;;;;;;1.37;69.25;100473.84;1751910;79;21203;-62
2021/03/28 03:41:24;;;;;;;28.13;17.17;;;;;;;1.33;69.15;100470.77;1764182;79;21740;-61
2021/03/28 03:44:24;;;;;;;31.73;17.73;;;;;;;1.27;69.33;100474.75;1811528;77;21235;-63
2021/03/28 03:46:58;;;;;;;30.33;17.33;;;;;;;1.25;69.35;100476.52;1801584;77;21068;-62
2021/03/28 03:49:52;;;;;;;32.33;19.13;;;;;;;1.23;69.42;100473.85;1807412;77;21258;-63
2021/03/28 03:52:58;;;;;;;30.20;16.40;;;;;;;1.24;69.45;100478.28;1808372;77;21891;-64
2021/03/28 03:56:00;;;;;;;28.45;17.40;;;;;;;1.26;69.39;100476.96;1810934;77;21187;-64
2021/03/28 03:58:35;;;;;;;28.63;15.87;;;;;;;1.24;69.45;100472.97;1780065;77;21473;-61
2021/03/28 04:01:23;;;;;;;28.37;15.17;;;;;;;1.24;69.52;100474.30;1809126;77;21193;-64
2021/03/28 04:04:16;;;;;;;31.33;17.97;;;;;;;1.28;69.48;100474.73;1812858;77;21719;-62
2021/03/28 04:07:40;;;;;;;32.20;17.47;;;;;;;1.31;69.49;100481.81;1811085;77;21551;-65
2021/03/28 04:10:28;;;;;;;28.53;16.57;;;;;;;1.34;69.48;100482.71;1811882;77;21226;-62
2021/03/28 04:13:28;;;;;;;27.47;16.73;;;;;;;1.38;69.35;100480.48;1809541;77;21178;-63
2021/03/28 04:16:19;;;;;;;33.67;18.37;;;;;;;1.37;69.39;100480.04;1751648;80;21187;-61
2021/03/28 04:18:56;;;;;;;30.27;16.97;;;;;;;1.40;69.46;100485.80;1753539;80;21281;-62
2021/03/28 04:21:54;;;;;;;27.13;16.83;;;;;;;1.42;69.38;100493.33;1758056;79;21400;-62
2021/03/28 04:24:54;;;;;;;30.30;18.33;;;;;;;1.41;69.40;100488.45;1803117;77;21171;-61
2021/03/28 04:27:48;;;;;;;31.70;18.07;;;;;;;1.47;69.48;100488.89;1807716;77;21163;-62
2021/03/28 04:30:45;;;;;;;31.50;18.27;;;;;;;1.52;69.56;100493.77;1805909;77;21167;-61
2021/03/28 04:33:43;;;;;;;31.17;18.33;;;;;;;1.57;69.59;100492.43;1809561;77;21540;-61
2021/03/28 04:36:42;;;;;;;36.97;18.63;;;;;;;1.63;69.51;100491.98;1777554;77;21373;-59
2021/03/28 04:39:50;;;;;;;28.10;17.63;;;;;;;1.70;69.40;100492.41;1675892;83;21233;-60
2021/03/28 04:42:57;;;;;;;41.97;18.90;;;;;;;1.80;69.42;100495.50;1714015;81;21234;-58
2021/03/28 04:46:09;;;;;;;39.37;20.60;;;;;;;1.97;69.39;100493.27;1762146;81;21160;-60
2021/03/28 04:49:12;;;;;;;37.60;19.80;;;;;;;2.15;69.31;100485.27;1696154;83;21200;-58
2021/03/28 04:52:12;;;;;;;32.83;18.63;;;;;;;2.32;69.19;100483.88;1753309;80;21382;-59
2021/03/28 04:55:14;;;;;;;31.30;18.33;;;;;;;2.45;68.95;100486.52;1723237;80;21185;-60
2021/03/28 04:58:11;;;;;;;31.60;19.10;;;;;;;2.51;68.78;100488.25;1753975;81;21568;-59
2021/03/28 05:00:56;;;;;;;34.50;19.93;;;;;;;2.57;68.84;100489.10;1751390;81;21214;-59
2021/03/28 05:04:01;;;;;;;31.00;19.07;;;;;;;2.66;68.66;100492.16;1754622;80;21082;-59
2021/03/28 05:07:15;;;;;;;29.83;17.50;;;;;;;2.75;68.70;100494.78;1754274;81;21368;-59
2021/03/28 05:10:14;;;;;;;33.77;19.90;;;;;;;2.93;68.65;100488.05;1867814;75;27418;-58
2021/03/28 05:12:58;;;;;;;27.52;19.40;;;;;;;2.99;68.58;100490.66;1863605;74;21241;-58
2021/03/28 05:15:53;;;;;;;34.47;19.67;;;;;;;3.19;68.54;100493.20;1859937;74;21166;-58
2021/03/28 05:18:38;;;;;;;33.03;20.40;;;;;;;3.39;68.37;100487.30;1861436;76;21236;-58
2021/03/28 05:21:47;;;;;;;32.33;19.60;;;;;;;3.63;68.10;100482.22;1860960;76;21499;-58
2021/03/28 05:24:54;;;;;;;34.03;20.37;;;;;;;3.84;67.79;100484.23;1860224;74;21174;-58
2021/03/28 05:28:17;;;;;;;36.63;21.13;;;;;;;4.09;67.18;100483.09;1858239;76;21548;-59
2021/03/28 05:31:05;;;;;;;37.27;20.60;;;;;;;4.35;66.52;100484.15;1862938;74;21459;-59
2021/03/28 05:33:57;;;;;;;31.93;19.23;;;;;;;4.63;65.64;100478.92;1864482;76;21564;-59
2021/03/28 05:36:46;;;;;;;33.00;18.93;;;;;;;4.87;64.66;100475.93;1858856;76;21480;-58
2021/03/28 05:39:43;;;;;;;34.00;19.00;;;;;;;5.15;63.80;100481.77;1834984;76;21166;-60
2021/03/28 05:42:33;;;;;;;37.33;21.37;;;;;;;5.42;63.03;100479.59;1848273;76;21163;-60
2021/03/28 05:45:21;;;;;;;34.00;18.83;;;;;;;5.72;62.19;100480.41;1829650;76;23419;-60
2021/03/28 05:48:13;;;;;;;32.83;19.03;;;;;;;6.08;61.18;100478.91;1868825;75;26605;-61
2021/03/28 05:51:19;;;;;;;31.82;18.57;;;;;;;6.27;60.42;100480.80;1862681;74;21154;-63
2021/03/28 05:54:30;;;;;;;32.93;18.80;;;;;;;6.52;59.30;100468.70;1861007;74;21721;-61
2021/03/28 05:57:54;;;;;;;32.40;19.27;;;;;;;6.80;58.57;100477.89;1866570;76;21372;-62
2021/03/28 06:00:47;;;;;;;34.87;18.33;;;;;;;7.05;58.04;100471.57;1864589;76;21524;-61
2021/03/28 06:03:57;;;;;;;30.40;18.00;;;;;;;7.32;57.06;100484.75;1864238;76;21280;-60
2021/03/28 06:07:06;;;;;;;28.83;16.90;;;;;;;7.53;56.74;100474.00;1866065;74;20972;-60
2021/03/28 06:10:17;;;;;;;31.63;16.43;;;;;;;7.76;55.77;100482.34;1862093;76;21346;-61
2021/03/28 06:13:24;;;;;;;26.87;16.00;;;;;;;7.98;55.29;100481.34;1858038;76;20913;-61
2021/03/28 06:16:40;;;;;;;33.60;18.40;;;;;;;8.18;54.34;100474.98;1795160;78;20988;-63
2021/03/28 06:19:30;;;;;;;28.97;16.70;;;;;;;8.37;53.64;100474.52;1849914;76;21424;-61
2021/03/28 06:22:21;;;;;;;26.90;16.93;;;;;;;8.56;53.42;100473.08;1862654;74;21482;-61
2021/03/28 06:25:24;;;;;;;28.13;16.87;;;;;;;8.69;53.04;100477.16;1864598;74;21380;-62
2021/03/28 06:28:28;;;;;;;26.77;17.87;;;;;;;8.84;52.58;100469.14;1866501;76;21126;-61
2021/03/28 06:31:24;;;;;;;37.17;18.67;;;;;;;8.99;52.25;100465.98;1859167;76;21078;-62
2021/03/28 06:34:17;;;;;;;;;;;;;;;9.14;51.97;100459.25;1866221;74;21071;-61
2021/03/28 06:37:25;;;;;;;31.70;18.90;;;;;;;9.29;51.61;100454.73;1863516;74;20465;-61
2021/03/28 06:40:27;;;;;;;43.90;21.20;;;;;;;9.43;51.40;100463.25;1860654;76;20961;-61
2021/03/28 06:43:07;;;;;;;33.53;19.67;;;;;;;9.59;50.63;100456.91;1840434;76;21856;-62
2021/03/28 06:46:01;;;;;;;32.77;18.73;;;;;;;9.71;50.38;100451.98;1796468;78;21028;-61
2021/03/28 06:49:00;;;;;;;35.53;18.33;;;;;;;9.86;50.26;100449.27;1764938;78;21183;-62
2021/03/28 06:51:52;;;;;;;32.17;17.00;;;;;;;10.00;49.68;100448.31;1780278;79;21200;-62
2021/03/28 06:54:40;;;;;;;42.27;19.73;;;;;;;10.15;49.02;100450.92;1771943;79;22216;-62
2021/03/28 06:57:43;;;;;;;36.20;18.40;;;;;;;10.28;48.63;100441.53;1776638;79;21196;-62
2021/03/28 07:00:54;;;;;;;34.50;18.37;;;;;;;10.39;48.43;100444.69;1770217;79;21562;-60
2021/03/28 07:04:03;;;;;;;27.73;17.87;;;;;;;10.52;48.27;100444.67;1776867;79;21214;-62
2021/03/28 07:07:00;;;;;;;31.13;16.90;;;;;;;10.66;48.26;100447.30;1779060;79;21229;-62
2021/03/28 07:09:39;;;;;;;32.63;17.10;;;;;;;10.80;47.56;100444.48;1776171;79;21657;-61
2021/03/28 07:12:26;;;;;;;29.30;16.83;;;;;;;10.94;46.93;100443.97;1776818;79;21227;-62
2021/03/28 07:15:16;;;;;;;25.27;15.17;;;;;;;11.03;46.63;100445.43;1768850;79;21168;-64
2021/03/28 07:18:14;;;;;;;30.40;16.67;;;;;;;11.13;46.25;100435.59;1771979;79;21151;-60
2021/03/28 07:21:28;;;;;;;32.57;16.80;;;;;;;11.24;46.19;100432.44;1758188;78;21183;-62
2021/03/28 07:24:25;;;;;;;27.70;15.50;;;;;;;11.35;46.13;100438.28;1776753;79;21617;-62
2021/03/28 07:27:32;;;;;;;34.97;16.80;;;;;;;11.45;45.42;100441.48;1779426;79;21166;-62
2021/03/28 07:30:36;;;;;;;27.97;17.23;;;;;;;11.55;45.32;100440.17;1779106;79;21895;-61
2021/03/28 07:33:30;;;;;;;27.63;18.00;;;;;;;11.63;45.27;100437.56;1775200;79;21159;-61
2021/03/28 07:36:28;;;;;;;29.43;18.23;;;;;;;11.72;45.01;100437.19;1777312;79;21178;-60
2021/03/28 07:39:45;;;;;;;26.03;16.60;;;;;;;11.81;44.90;100431.91;1757799;79;21312;-61
2021/03/28 07:42:32;;;;;;;26.25;16.93;;;;;;;11.91;45.04;100428.35;1782350;79;21272;-63
2021/03/28 07:45:35;;;;;;;30.15;18.90;;;;;;;12.02;44.87;100426.05;1774766;79;21238;-61
2021/03/28 07:48:53;;;;;;;29.93;17.10;;;;;;;12.11;44.36;100426.52;1779171;79;21140;-61
2021/03/28 07:51:55;;;;;;;30.68;20.10;;;;;;;12.20;44.43;100421.66;1746475;80;21573;-62
2021/03/28 07:54:47;;;;;;;28.47;17.30;;;;;;;12.34;43.95;100420.56;1870815;75;22594;-63
2021/03/28 07:57:54;;;;;;;33.35;18.48;;;;;;;12.37;43.83;100417.73;1773780;77;21188;-61
2021/03/28 08:00:46;;;;;;;23.60;15.63;;;;;;;12.43;43.62;100410.70;1849005;77;21537;-64
2021/03/28 08:03:47;;;;;;;24.35;14.43;;;;;;;12.50;43.76;100410.35;1851233;77;22246;-63
2021/03/28 08:06:29;;;;;;;22.95;13.28;;;;;;;12.57;43.23;100416.84;1819904;77;21179;-63
2021/03/28 08:09:26;;;;;;;22.30;13.60;;;;;;;12.64;42.83;100415.61;1844898;77;21057;-61
2021/03/28 08:12:16;;;;;;;21.33;14.03;;;;;;;12.70;42.84;100408.56;1852290;77;21255;-62
2021/03/28 08:14:51;;;;;;;23.65;14.43;;;;;;;12.75;41.85;100410.59;1848396;77;21222;-61
2021/03/28 08:17:37;;;;;;;19.57;13.13;;;;;;;12.82;41.93;100411.59;1845810;77;21472;-63
2021/03/28 08:20:44;;;;;;;19.23;13.28;;;;;;;12.88;41.37;100404.53;1846639;77;21157;-64
2021/03/28 08:23:42;;;;;;;14.85;10.23;;;;;;;12.97;41.20;100407.75;1849134;76;21190;-62
2021/03/28 08:26:45;;;;;;;15.25;11.43;;;;;;;13.04;40.89;100407.85;1848387;77;21083;-62
2021/03/28 08:30:01;;;;;;;16.42;10.70;;;;;;;13.09;40.19;100405.34;1850440;77;22022;-64
2021/03/28 08:33:02;;;;;;;13.95;9.30;;;;;;;13.15;40.09;100403.73;1853524;77;21162;-63
2021/03/28 08:36:07;;;;;;;28.60;10.98;;;;;;;13.20;39.58;100393.55;1848449;77;21107;-61
2021/03/28 08:38:58;;;;;;;17.10;9.48;;;;;;;13.26;39.36;100393.75;1781920;78;21561;-65
2021/03/28 08:41:53;;;;;;;11.83;8.30;;;;;;;13.32;39.67;100390.73;1780609;79;21117;-64
2021/03/28 08:44:52;;;;;;;13.45;9.93;;;;;;;13.37;38.20;100390.49;1787304;78;21369;-64
2021/03/28 08:47:45;;;;;;;11.88;8.95;;;;;;;13.39;38.56;100386.77;1759425;79;21199;-63
2021/03/28 08:50:39;;;;;;;14.13;8.65;;;;;;;13.46;38.05;100387.33;1676734;79;21190;-63
2021/03/28 08:53:52;;;;;;;9.70;7.90;;;;;;;13.50;37.79;100380.36;1754078;79;21170;-65
2021/03/28 08:56:44;;;;;;;12.25;8.43;;;;;;;13.55;37.79;100383.70;1759422;80;21163;-63
2021/03/28 08:59:50;;;;;;;12.03;7.00;;;;;;;13.61;37.32;100382.02;1757985;79;21328;-62
2021/03/28 09:02:38;;;;;;;9.48;7.78;;;;;;;13.67;37.77;100384.03;1761763;79;21127;-61
2021/03/28 09:05:43;;;;;;;8.15;7.05;;;;;;;13.76;37.41;100383.09;1696339;80;21158;-62
2021/03/28 09:08:34;;;;;;;7.40;6.72;;;;;;;13.80;35.84;100381.09;1685016;80;22053;-63
2021/03/28 09:11:33;;;;;;;12.85;7.90;;;;;;;13.82;36.13;100378.71;1759531;79;21107;-59
2021/03/28 09:14:41;;;;;;;10.93;7.37;;;;;;;13.84;35.88;100375.93;1712636;81;22271;-63
2021/03/28 09:17:18;;;;;;;10.55;7.50;;;;;;;13.85;36.11;100375.86;1755382;80;21134;-61
2021/03/28 09:20:28;;;;;;;8.80;7.90;;;;;;;13.92;36.33;100375.93;1754133;80;21122;-63
2021/03/28 09:23:30;;;;;;;8.55;7.35;;;;;;;13.97;36.67;100379.26;1734656;80;21114;-63
2021/03/28 09:26:23;;;;;;;12.53;7.58;;;;;;;14.05;36.35;100363.09;1754448;80;21109;-62
2021/03/28 09:29:40;;;;;;;12.43;8.00;;;;;;;14.11;35.89;100369.55;1752942;80;21417;-63
2021/03/28 09:32:30;;;;;;;9.05;7.22;;;;;;;14.13;36.32;100363.08;1750109;80;21707;-65
2021/03/28 09:35:37;;;;;;;8.68;7.75;;;;;;;14.20;35.94;100367.24;1751992;80;21205;-63
2021/03/28 09:38:54;;;;;;;10.20;8.28;;;;;;;14.23;35.91;100367.53;1754474;80;21096;-63
2021/03/28 09:41:39;;;;;;;10.10;7.87;;;;;;;14.23;36.16;100361.64;1756313;80;21227;-65
2021/03/28 09:44:35;;;;;;;12.30;9.08;;;;;;;14.28;36.14;100362.77;1751284;80;21464;-62
2021/03/28 09:47:48;;;;;;;10.48;7.95;;;;;;;14.28;35.78;100362.28;1752801;80;21235;-62
2021/03/28 09:50:27;;;;;;;9.95;8.30;;;;;;;14.27;36.43;100361.02;1753863;80;21202;-64
2021/03/28 09:53:33;;;;;;;11.35;8.90;;;;;;;14.31;35.91;100355.81;1751380;80;21103;-66
2021/03/28 09:56:28;;;;;;;11.38;9.08;;;;;;;14.32;36.03;100361.15;1706542;81;21212;-63
2021/03/28 09:59:36;;;;;;;15.15;9.43;;;;;;;14.35;36.07;100351.52;1734935;81;21464;-64
2021/03/28 10:02:13;;;;;;;13.60;9.35;;;;;;;14.37;35.81;100349.58;1735483;81;21209;-62
2021/03/28 10:05:08;;;;;;;9.70;8.15;;;;;;;14.38;36.11;100352.72;1732276;81;21509;-63
2021/03/28 10:08:00;;;;;;;9.80;7.92;;;;;;;14.39;36.10;100339.58;1734816;81;21205;-64
2021/03/28 10:10:38;;;;;;;11.80;8.73;;;;;;;14.42;36.24;100342.61;1734318;81;21178;-61
2021/03/28 10:13:17;;;;;;;11.60;8.85;;;;;;;14.48;36.06;100340.03;1735570;81;22173;-61
2021/03/28 10:16:17;;;;;;;11.53;9.13;;;;;;;14.48;35.92;100334.61;1735255;81;21197;-63
2021/03/28 10:19:06;;;;;;;15.38;12.13;;;;;;;14.48;36.17;100335.48;1734898;81;21417;-63
2021/03/28 10:22:13;;;;;;;12.65;9.88;;;;;;;14.51;35.90;100343.45;1737308;81;21577;-62
2021/03/28 10:25:01;;;;;;;17.07;11.03;;;;;;;14.51;36.22;100338.03;1736428;81;21183;-63
2021/03/28 10:30:01;;;;;;;10.70;9.67;;;;;;;14.58;36.11;100323.67;1750432;79;23373;-65
2021/03/28 10:33:03;;;;;;;12.88;10.03;;;;;;;14.55;36.41;100327.41;1695003;82;21495;-61
2021/03/28 10:36:30;;;;;;;14.33;10.80;;;;;;;14.59;36.65;100324.94;1725544;80;21218;-62
2021/03/28 10:39:17;;;;;;;16.25;11.15;;;;;;;14.64;36.68;100329.61;1730902;82;21211;-61
2021/03/28 10:42:16;;;;;;;14.65;10.18;;;;;;;14.66;36.98;100316.86;1720622;82;21069;-62
2021/03/28 10:45:04;;;;;;;15.30;11.88;;;;;;;14.68;36.71;100318.13;1707398;82;21210;-63
2021/03/28 10:48:24;;;;;;;12.90;10.00;;;;;;;14.69;36.74;100325.31;1685468;83;21173;-64
2021/03/28 10:51:05;;;;;;;13.62;10.93;;;;;;;14.68;36.88;100319.48;1706993;82;22406;-63
2021/03/28 10:54:10;;;;;;;14.55;11.57;;;;;;;14.68;37.37;100314.07;1705938;83;21096;-64
2021/03/28 10:57:21;;;;;;;17.65;10.80;;;;;;;14.72;37.54;100311.09;1682336;83;21188;-64
2021/03/28 11:00:24;;;;;;;16.40;11.50;;;;;;;14.78;37.04;100309.01;1708208;83;21199;-65
2021/03/28 11:03:06;;;;;;;19.50;10.58;;;;;;;14.80;36.78;100298.97;1709515;83;21190;-64
2021/03/28 11:05:51;;;;;;;14.53;10.32;;;;;;;14.80;37.00;100303.88;1707542;82;21391;-63
2021/03/28 11:08:29;;;;;;;;;;;;;;;14.82;36.79;100303.31;1708426;83;21179;-62
2021/03/28 11:11:36;;;;;;;16.73;10.08;;;;;;;14.81;37.03;100294.78;1708353;83;20594;-66
2021/03/28 11:14:47;;;;;;;14.10;11.22;;;;;;;14.82;37.10;100299.73;1702883;82;22138;-63
2021/03/28 11:17:20;;;;;;;15.00;12.15;;;;;;;14.83;36.92;100292.88;1706752;83;21589;-62
2021/03/28 11:19:59;;;;;;;;;;;;;;;14.85;36.65;100285.53;1710290;82;21222;-61
2021/03/28 11:23:07;;;;;;;18.17;12.00;;;;;;;14.87;36.42;100280.03;1706661;83;20606;-63
2021/03/28 11:25:59;;;;;;;20.50;13.15;;;;;;;14.86;36.34;100277.80;1706199;83;21215;-64
2021/03/28 11:28:38;;;;;;;15.15;11.53;;;;;;;14.86;36.44;100285.05;1702561;82;21153;-64
2021/03/28 11:31:37;;;;;;;15.28;11.83;;;;;;;14.87;36.41;100286.33;1688265;84;21630;-63
2021/03/28 11:34:21;;;;;;;15.15;11.88;;;;;;;14.87;36.42;100287.69;1688401;83;21257;-62
2021/03/28 11:37:08;;;;;;;19.48;12.95;;;;;;;14.89;36.35;100284.86;1711509;82;21495;-63
2021/03/28 11:39:39;;;;;;;13.85;9.63;;;;;;;14.88;36.07;100275.01;1707838;82;21150;-63
2021/03/28 11:42:15;;;;;;;13.53;9.78;;;;;;;14.86;36.54;100280.52;1703156;82;21639;-63
2021/03/28 11:45:04;;;;;;;12.03;10.78;;;;;;;14.87;36.59;100275.48;1711432;83;21682;-62
2021/03/28 11:47:42;;;;;;;14.83;11.35;;;;;;;14.90;36.39;100276.64;1710180;83;21218;-62
2021/03/28 11:50:38;;;;;;;18.98;11.18;;;;;;;14.91;36.58;100268.91;1708719;83;21801;-63
2021/03/28 11:53:21;;;;;;;13.45;10.68;;;;;;;14.92;36.48;100273.85;1713965;83;21134;-64
2021/03/28 11:55:57;;;;;;;14.55;10.53;;;;;;;14.92;36.47;100272.02;1712191;82;21127;-63
2021/03/28 11:58:32;;;;;;;15.70;12.37;;;;;;;14.90;36.45;100271.70;1715167;83;21115;-64
2021/03/28 12:00:59;;;;;;;13.38;11.03;;;;;;;14.86;36.44;100264.25;1709531;83;21578;-64
2021/03/28 12:03:34;;;;;;;13.72;10.43;;;;;;;14.79;36.39;100261.50;1684862;83;21641;-62
2021/03/28 12:06:23;;;;;;;14.25;10.85;;;;;;;14.71;37.11;100267.37;1711025;83;21562;-62
2021/03/28 12:08:56;;;;;;;12.05;10.28;;;;;;;14.67;37.22;100263.55;1711312;83;21463;-64
2021/03/28 12:11:40;;;;;;;;;;;;;;;14.68;37.36;100260.75;1713582;83;21121;-64
2021/03/28 12:14:27;;;;;;;15.00;12.13;;;;;;;14.70;37.27;100260.67;1709376;82;21211;-63
2021/03/28 12:17:23;;;;;;;16.05;12.43;;;;;;;14.69;37.40;100257.56;1687690;83;21591;-63
2021/03/28 12:20:20;;;;;;;15.10;12.07;;;;;;;14.70;37.34;100247.13;1709233;82;21387;-62
2021/03/28 12:22:52;;;;;;;14.60;11.10;;;;;;;14.70;37.73;100248.48;1711958;83;21683;-66
2021/03/28 12:25:30;;;;;;;15.98;12.30;;;;;;;14.66;37.32;100245.06;1680743;83;21253;-63
2021/03/28 12:28:03;;;;;;;14.70;11.15;;;;;;;14.62;37.86;100243.98;1710257;82;21714;-62
2021/03/28 12:30:40;;;;;;;15.65;11.75;;;;;;;14.60;37.99;100241.83;1707389;83;21167;-64
2021/03/28 12:33:23;;;;;;;16.55;12.65;;;;;;;14.54;38.29;100252.55;1712603;83;21105;-63
2021/03/28 12:36:04;;;;;;;19.23;11.80;;;;;;;14.52;38.36;100245.46;1687686;83;21392;-64
2021/03/28 12:38:41;;;;;;;15.85;12.13;;;;;;;14.50;38.40;100241.95;1712206;83;21431;-62
2021/03/28 12:41:28;;;;;;;16.97;12.50;;;;;;;14.47;38.55;100238.93;1705794;82;21218;-63
2021/03/28 12:44:08;;;;;;;16.17;11.25;;;;;;;14.46;38.58;100241.23;1710674;83;21179;-64
2021/03/28 12:46:53;;;;;;;12.55;10.82;;;;;;;14.43;38.63;100233.79;1708514;82;21179;-63
2021/03/28 12:49:26;;;;;;;15.68;11.10;;;;;;;14.41;38.81;100233.87;1710644;83;21160;-63
2021/03/28 12:52:14;;;;;;;18.05;11.97;;;;;;;14.40;38.93;100229.41;1711633;83;21199;-63
2021/03/28 12:54:57;;;;;;;15.32;12.55;;;;;;;14.38;38.82;100232.20;1700954;83;22861;-63
2021/03/28 12:57:38;;;;;;;16.42;11.30;;;;;;;14.36;38.77;100232.75;1709440;83;21822;-62
2021/03/28 13:00:32;;;;;;;12.50;9.90;;;;;;;14.36;38.73;100226.47;1712641;83;22047;-64
2021/03/28 13:03:00;;;;;;;14.05;9.98;;;;;;;14.37;38.67;100228.22;1711296;82;21293;-62
2021/03/28 13:05:32;;;;;;;11.12;9.20;;;;;;;14.37;38.50;100223.64;1658394;83;21573;-62
2021/03/28 13:08:12;;;;;;;14.53;10.38;;;;;;;14.39;38.67;100226.30;1711108;83;21665;-63
2021/03/28 13:10:39;;;;;;;13.32;10.38;;;;;;;14.41;38.97;100230.28;1711206;82;21214;-61
2021/03/28 13:13:24;;;;;;;14.35;9.93;;;;;;;14.43;38.73;100220.25;1711756;82;21178;-63
2021/03/28 13:16:01;;;;;;;12.50;10.50;;;;;;;14.45;38.71;100219.20;1711819;83;21044;-62
2021/03/28 13:18:45;;;;;;;11.55;10.13;;;;;;;14.47;38.63;100220.45;1711586;83;21211;-63